Latest Weather Observations for Warruwi

IDD60801

Issued at 4:31 pm CST Friday 28 August 2015 (issued every 30 minutes, with the page automatically refreshed every 10 minutes)

About weather observations | Map of weather stations | Latest weather observations for NT | Other Formats
Station Details ID: 014401 Name: WARRUWI AIRPORT Lat: -11.65 Lon: 133.38 Height: 19.2 m
Data from the previous 72 hours. | See also: Recent months at Warruwi
Date/Time
CST
Temp
°C
App
Temp
°C
Dew
Point
Rel
Hum
%
Delta-T
°C
Wind Press
QNH
hPa
Press
MSL
hPa
Rain
since 9 am
mm
Dir
 
Spd
km/h
Gust
km/h
Spd
kts
Gust
kts
28/04:30pm 27.5 27.8 19.6 62 5.1 E 17 26 9 14 1012.6 1012.5 0.0
28/04:00pm 28.3 29.1 20.6 63 5.1 E 17 20 9 11 1012.8 1012.7 0.0
28/03:30pm 27.9 28.0 19.9 61 5.2 E 19 26 10 14 1013.1 1013.0 0.0
28/03:00pm 28.3 28.7 19.8 60 5.6 E 17 26 9 14 1013.4 1013.3 0.0
28/02:30pm 28.3 29.1 19.8 60 5.5 E 15 28 8 15 1013.8 1013.7 0.0
28/02:00pm 28.4 28.7 19.6 59 5.7 ENE 17 28 9 15 1014.2 1014.1 0.0
28/01:30pm 28.5 29.0 20.0 60 5.6 E 17 26 9 14 1014.7 1014.6 0.0
28/01:00pm 28.7 28.5 19.3 56 6.1 E 19 26 10 14 1015.2 1015.1 0.0
28/12:30pm 28.8 27.9 19.1 55 6.3 E 22 30 12 16 1015.5 1015.4 0.0
28/12:00pm 29.0 28.3 18.7 53 6.6 E 20 30 11 16 1016.0 1015.9 0.0
28/11:30am 28.7 28.4 19.6 58 5.9 E 20 30 11 16 1016.5 1016.4 0.0
28/11:00am 27.9 28.5 20.2 63 5.1 E 17 24 9 13 1016.8 1016.7 0.0
28/10:30am 27.6 28.7 20.4 65 4.7 E 15 22 8 12 1017.1 1017.0 0.0
28/10:00am 27.1 28.1 20.2 66 4.5 E 15 20 8 11 1017.1 1017.0 0.0
28/09:30am 26.4 27.4 20.3 69 4.0 ESE 15 19 8 10 1016.9 1016.8 0.0
28/09:00am 25.9 27.8 20.5 72 3.5 ESE 11 17 6 9 1016.7 1016.6 0.0
28/08:30am 25.1 26.8 20.1 74 3.2 SE 11 15 6 8 1016.5 1016.4 0.0
28/08:00am 24.8 26.5 20.1 75 3.0 SE 11 17 6 9 1016.2 1016.1 0.0
28/07:30am 24.5 26.2 20.2 77 2.8 ESE 11 15 6 8 1015.7 1015.6 0.0
28/07:00am 23.3 25.4 20.1 82 2.1 ESE 9 13 5 7 1015.5 1015.4 0.0
28/06:30am 23.2 24.9 20.2 83 1.9 ESE 11 19 6 10 1015.2 1015.1 0.0
28/06:00am 23.3 25.0 20.2 83 2.0 SE 11 17 6 9 1015.0 1014.9 0.0
28/05:30am 23.4 24.8 20.3 83 2.0 SE 13 22 7 12 1014.7 1014.6 0.0
28/05:00am 23.7 24.9 20.6 83 2.0 ESE 15 19 8 10 1014.6 1014.5 0.0
28/04:30am 23.8 24.5 20.5 82 2.1 ESE 17 24 9 13 1014.6 1014.5 0.0
28/04:00am 24.0 24.9 20.9 83 2.0 ESE 17 24 9 13 1014.7 1014.6 0.0
28/03:30am 24.4 25.0 21.1 82 2.2 ESE 19 30 10 16 1014.6 1014.5 0.0
28/03:00am 25.2 25.2 20.9 77 2.8 ESE 22 33 12 18 1014.8 1014.7 0.0
28/02:30am 25.4 25.6 22.1 82 2.2 E 24 32 13 17 1014.7 1014.6 0.0
28/02:00am 25.3 26.2 22.0 82 2.2 E 20 30 11 16 1014.8 1014.7 0.0
28/01:30am 25.3 26.3 21.8 81 2.3 E 19 28 10 15 1015.1 1015.0 0.0
28/01:00am 25.2 26.5 21.7 81 2.3 E 17 26 9 14 1015.4 1015.3 0.0
28/12:30am 25.1 27.1 21.6 81 2.3 ENE 13 26 7 14 1015.5 1015.4 0.0
28/12:00am 25.0 27.5 21.7 82 2.2 ENE 11 17 6 9 1015.6 1015.5 0.0
 
Date/Time
CST
Temp
°C
App
Temp
°C
Dew
Point
Rel
Hum
%
Delta-T
°C
Wind Press
QNH
hPa
Press
MSL
hPa
Rain
since 9 am
mm
Dir
 
Spd
km/h
Gust
km/h
Spd
kts
Gust
kts
27/11:30pm 25.0 27.7 21.3 80 2.4 ENE 9 19 5 10 1015.8 1015.7 0.0
27/11:00pm 24.9 27.6 21.4 81 2.3 ENE 9 17 5 9 1015.9 1015.8 0.0
27/10:30pm 25.0 27.7 21.3 80 2.4 ENE 9 15 5 8 1015.9 1015.8 0.0
27/10:00pm 25.0 27.9 21.1 79 2.6 ENE 7 13 4 7 1015.8 1015.7 0.0
27/09:30pm 25.1 27.7 21.2 79 2.6 ENE 9 15 5 8 1015.6 1015.5 0.0
27/09:00pm 25.0 27.9 21.1 79 2.6 ENE 7 13 4 7 1015.3 1015.2 0.0
27/08:30pm 25.0 27.4 20.9 78 2.7 ENE 9 17 5 9 1015.0 1014.9 0.0
27/08:00pm 25.1 27.5 20.8 77 2.8 ENE 9 15 5 8 1014.8 1014.7 0.0
27/07:30pm 25.2 27.5 20.7 76 2.9 ENE 9 15 5 8 1014.7 1014.6 0.0
27/07:00pm 25.3 27.9 20.5 75 3.1 ENE 7 15 4 8 1014.3 1014.2 0.0
27/06:30pm 25.5 27.3 20.3 73 3.4 ENE 11 19 6 10 1014.0 1013.9 0.0
27/06:00pm 26.1 27.8 20.2 70 3.8 NE 11 19 6 10 1013.8 1013.7 0.0
27/05:30pm 26.5 27.2 19.6 66 4.5 ENE 15 24 8 13 1013.6 1013.5 0.0
27/05:00pm 27.1 27.7 19.4 62 5.0 ENE 15 22 8 12 1013.3 1013.2 0.0
27/04:30pm 27.7 29.2 20.5 65 4.7 ENE 13 24 7 13 1013.3 1013.2 0.0
27/04:00pm 28.1 29.0 20.9 65 4.8 E 17 24 9 13 1013.5 1013.4 0.0
27/03:30pm 28.1 28.7 21.1 65 4.7 E 19 28 10 15 1013.7 1013.6 0.0
27/03:00pm 27.8 28.2 20.6 65 4.7 E 19 26 10 14 1013.8 1013.7 0.0
27/02:30pm 27.8 28.7 20.9 66 4.6 E 17 24 9 13 1014.1 1014.0 0.0
27/02:00pm 27.9 29.1 20.7 65 4.8 E 15 20 8 11 1014.6 1014.5 0.0
27/01:30pm 28.0 28.9 20.8 65 4.8 E 17 24 9 13 1014.9 1014.8 0.0
27/01:00pm 27.8 29.0 20.6 65 4.7 E 15 20 8 11 1015.3 1015.2 0.0
27/12:30pm 27.9 28.7 20.7 65 4.8 E 17 24 9 13 1015.6 1015.5 0.0
27/12:00pm 27.6 28.3 21.2 68 4.3 E 19 24 10 13 1015.9 1015.8 0.0
27/11:30am 27.6 27.8 20.2 64 4.8 E 19 26 10 14 1016.2 1016.1 0.0
27/11:00am 27.4 28.6 21.4 70 4.0 E 17 26 9 14 1016.7 1016.6 0.0
27/10:30am 27.4 28.2 21.4 70 4.0 E 19 26 10 14 1017.0 1016.9 0.0
27/10:00am 27.0 28.9 22.0 74 3.4 E 15 22 8 12 1017.1 1017.0 0.0
27/09:30am 25.6 26.6 21.7 79 2.6 ESE 19 22 10 12 1017.0 1016.9 0.0
27/09:00am 25.5 26.4 21.6 79 2.6 ESE 19 24 10 13 1016.7 1016.6 0.0
27/08:30am 25.1 26.3 21.4 80 2.4 ESE 17 22 9 12 1016.3 1016.2 0.0
27/08:00am 24.4 25.6 21.5 84 1.9 ESE 17 24 9 13 1016.0 1015.9 0.0
27/07:30am 23.9 25.6 21.6 87 1.5 ESE 15 20 8 11 1015.7 1015.6 0.0
27/07:00am 23.3 25.3 21.6 90 1.1 ESE 13 19 7 10 1015.3 1015.2 0.0
27/06:30am 23.7 25.9 21.8 89 1.3 ESE 13 19 7 10 1015.0 1014.9 0.0
27/06:00am 24.0 26.6 21.9 88 1.4 ESE 11 17 6 9 1014.7 1014.6 0.0
27/05:30am 24.2 26.3 21.7 86 1.7 ESE 13 19 7 10 1014.4 1014.3 0.0
27/05:00am 24.9 26.5 21.4 81 2.3 ESE 15 20 8 11 1014.0 1013.9 0.0
27/04:30am 25.3 26.3 21.0 77 2.8 E 17 28 9 15 1013.9 1013.8 0.0
27/04:00am 25.1 26.4 21.6 81 2.3 E 17 26 9 14 1013.7 1013.6 0.0
27/03:30am 25.1 26.7 21.4 80 2.4 E 15 24 8 13 1013.7 1013.6 0.0
27/03:00am 25.1 26.7 21.4 80 2.4 E 15 24 8 13 1013.8 1013.7 0.0
27/02:30am 24.8 26.4 21.5 82 2.2 E 15 22 8 12 1014.1 1014.0 0.0
27/02:00am 24.8 26.3 21.3 81 2.3 E 15 19 8 10 1014.4 1014.3 0.0
27/01:30am 24.8 26.9 21.7 83 2.1 E 13 19 7 10 1014.6 1014.5 0.0
27/01:00am 24.8 26.9 21.7 83 2.1 E 13 24 7 13 1014.7 1014.6 0.0
27/12:30am 24.6 28.1 22.1 86 1.7 ENE 7 15 4 8 1015.0 1014.9 0.0
27/12:00am 24.4 27.9 22.1 87 1.5 ENE 7 15 4 8 1015.1 1015.0 0.0
 
Date/Time
CST
Temp
°C
App
Temp
°C
Dew
Point
Rel
Hum
%
Delta-T
°C
Wind Press
QNH
hPa
Press
MSL
hPa
Rain
since 9 am
mm
Dir
 
Spd
km/h
Gust
km/h
Spd
kts
Gust
kts
26/11:30pm 24.3 27.7 22.0 87 1.5 ENE 7 15 4 8 1015.1 1015.0 0.0
26/11:00pm 24.0 27.4 21.7 87 1.5 ENE 6 9 3 5 1015.1 1015.0 0.0
26/10:30pm 24.0 27.3 21.5 86 1.7 NE 6 7 3 4 1014.9 1014.8 0.0
26/10:00pm 24.2 27.5 21.5 85 1.8 ENE 6 11 3 6 1014.8 1014.7 0.0
26/09:30pm 23.9 27.5 21.2 85 1.8 ENE 4 7 2 4 1014.8 1014.7 0.0
26/09:00pm 24.0 27.1 21.1 84 1.9 ENE 6 7 3 4 1014.7 1014.6 0.0
26/08:30pm 24.2 27.3 21.1 83 2.0 ENE 6 9 3 5 1014.6 1014.5 0.0
26/08:00pm 24.4 27.5 21.1 82 2.2 ENE 6 9 3 5 1014.4 1014.3 0.0
26/07:30pm 24.7 27.8 21.0 80 2.4 ENE 6 9 3 5 1014.1 1014.0 0.0
26/07:00pm 25.0 27.7 20.7 77 2.8 ENE 7 13 4 7 1013.8 1013.7 0.0
26/06:30pm 25.4 28.0 20.4 74 3.3 ENE 7 15 4 8 1013.8 1013.7 0.0
26/06:00pm 26.0 27.5 20.6 72 3.5 ENE 13 20 7 11 1013.6 1013.5 0.0
26/05:30pm 26.5 27.5 20.3 68 4.1 E 15 20 8 11 1013.5 1013.4 0.0
26/05:00pm 26.8 28.1 20.9 70 3.9 E 15 22 8 12 1013.5 1013.4 0.0
26/04:30pm 27.0 27.8 20.6 68 4.2 E 17 26 9 14 1013.6 1013.5 0.0
26/04:00pm 27.9 28.7 20.7 65 4.8 E 17 28 9 15 1013.6 1013.5 0.0
26/03:30pm 28.3 28.8 20.8 63 5.0 E 19 26 10 14 1013.7 1013.6 0.0
26/03:00pm 27.7 28.0 20.8 66 4.6 E 20 30 11 16 1014.0 1013.9 0.0
26/02:30pm 28.2 28.7 21.2 65 4.7 E 20 30 11 16 1014.3 1014.2 0.0
26/02:00pm 28.0 28.5 21.1 66 4.6 E 20 30 11 16 1014.8 1014.7 0.0
26/01:30pm 27.9 28.9 20.2 63 5.0 E 15 26 8 14 1015.2 1015.1 0.0
26/01:00pm 28.0 28.8 20.6 64 4.9 E 17 24 9 13 1015.7 1015.6 0.0
26/12:30pm 28.1 28.2 21.1 65 4.6 E 22 30 12 16 1016.3 1016.2 0.0
26/12:00pm 28.3 28.5 21.3 65 4.7 E 22 30 12 16 1016.6 1016.5 0.0
26/11:30am 28.1 28.8 21.6 68 4.3 E 20 28 11 15 1016.9 1016.8 0.0
26/11:00am 28.2 29.3 21.2 65 4.7 E 17 26 9 14 1017.2 1017.1 0.0
26/10:30am 27.4 28.7 21.7 71 3.8 E 17 26 9 14 1017.5 1017.4 0.0
26/10:00am 26.5 27.7 21.5 74 3.3 ESE 17 24 9 13 1017.7 1017.6 0.0
26/09:30am 26.3 27.4 21.9 77 2.9 ESE 19 28 10 15 1017.4 1017.3 0.0
26/09:00am 26.5 27.7 22.1 77 2.9 ESE 19 24 10 13 1017.1 1017.0 0.0
26/08:30am 25.1 26.7 22.2 84 1.9 ESE 17 22 9 12 1016.8 1016.7 0.0
26/08:00am 25.1 26.8 22.4 85 1.8 ESE 17 24 9 13 1016.4 1016.3 0.0
26/07:30am 24.7 27.2 22.4 87 1.5 ESE 13 19 7 10 1016.0 1015.9 0.0
26/07:00am 24.8 25.9 22.3 86 1.7 E 20 28 11 15 1015.6 1015.5 0.0
26/06:30am 24.8 25.8 22.1 85 1.8 E 20 28 11 15 1015.4 1015.3 0.0
26/06:00am 24.7 26.3 22.2 86 1.7 ESE 17 24 9 13 1014.8 1014.7 0.0
26/05:30am 24.9 25.8 22.0 84 1.9 E 20 26 11 14 1014.6 1014.5 0.0
26/05:00am 25.0 26.0 22.1 84 1.9 E 20 28 11 15 1014.3 1014.2 0.0
26/04:30am 25.0 26.4 21.9 83 2.1 E 17 28 9 15 1014.2 1014.1 0.0
26/04:00am 25.0 26.0 21.7 82 2.2 E 19 32 10 17 1014.0 1013.9 0.0
26/03:30am 25.1 27.0 22.0 83 2.1 ENE 15 26 8 14 1013.9 1013.8 0.0
26/03:00am 25.1 26.7 22.2 84 1.9 E 17 26 9 14 1014.1 1014.0 0.0
26/02:30am 25.2 27.1 22.1 83 2.1 E 15 24 8 13 1014.2 1014.1 0.0
26/02:00am 25.1 27.0 22.0 83 2.1 E 15 26 8 14 1014.5 1014.4 0.0
26/01:30am 25.1 27.0 22.0 83 2.1 E 15 20 8 11 1014.6 1014.5 0.0
26/01:00am 25.1 27.8 22.2 84 1.9 E 11 17 6 9 1015.0 1014.9 0.0
26/12:30am 25.3 28.4 22.8 86 1.7 E 11 19 6 10 1015.1 1015.0 0.0
26/12:00am 25.3 28.3 22.6 85 1.8 ENE 11 19 6 10 1015.1 1015.0 0.0
 
Date/Time
CST
Temp
°C
App
Temp
°C
Dew
Point
Rel
Hum
%
Delta-T
°C
Wind Press
QNH
hPa
Press
MSL
hPa
Rain
since 9 am
mm
Dir
 
Spd
km/h
Gust
km/h
Spd
kts
Gust
kts
25/11:30pm 25.4 28.5 22.9 86 1.7 ENE 11 17 6 9 1015.0 1014.9 0.0
25/11:00pm 25.4 28.9 22.9 86 1.7 ENE 9 19 5 10 1015.2 1015.1 0.0
25/10:30pm 25.1 28.4 22.6 86 1.7 ENE 9 17 5 9 1015.1 1015.0 0.0
25/10:00pm 25.0 29.0 22.7 87 1.6 ENE 6 13 3 7 1015.1 1015.0 0.0
25/09:30pm 25.0 28.9 22.5 86 1.7 ENE 6 9 3 5 1015.0 1014.9 0.0
25/09:00pm 25.1 29.0 22.6 86 1.7 ENE 6 13 3 7 1014.8 1014.7 0.0
25/08:30pm 25.2 28.9 22.5 85 1.8 ENE 7 11 4 6 1014.7 1014.6 0.0
25/08:00pm 25.3 29.1 22.4 84 1.9 ENE 6 7 3 4 1014.4 1014.3 0.0
25/07:30pm 25.4 29.0 22.1 82 2.2 ENE 6 9 3 5 1014.0 1013.9 0.0
25/07:00pm 25.6 28.7 22.1 81 2.3 ENE 9 17 5 9 1013.9 1013.8 0.0
25/06:30pm 25.9 28.4 21.8 78 2.7 ENE 11 20 6 11 1013.7 1013.6 0.0
25/06:00pm 26.6 28.8 21.8 75 3.2 ENE 13 22 7 12 1013.6 1013.5 0.0
25/05:30pm 27.0 28.2 21.5 72 3.7 E 17 24 9 13 1013.5 1013.4 0.0
25/05:00pm 27.5 29.0 21.3 69 4.1 ENE 15 28 8 15 1013.4 1013.3 0.0

Other Formats:

Comma delimited format used in spreadsheet applications
http://www.bom.gov.au/fwo/IDD60801/IDD60801.94139.axf

JavaScript Object Notation format (JSON) in row-major order
http://www.bom.gov.au/fwo/IDD60801/IDD60801.94139.json